Time;durP1;ratioP1;P1;durP2;ratioP2;P2;SDS_P1;SDS_P2;PMS_P1;PMS_P2;Temp;Humidity;BMP_temperature;BMP_pressure;BME280_temperature;BME280_humidity;BME280_pressure;Samples;Min_cycle;Max_cycle;Signal;HPM_P1;HPM_P2
2022/05/10 00:03:29;;;;;;;14.20;9.10;;;;;13.80;101557.00;;;;9944719;29;20238;-84
2022/05/10 00:08:31;;;;;;;16.10;8.17;;;;;13.80;101558.00;;;;9968596;29;20202;-83
2022/05/10 00:13:33;;;;;;;16.37;7.93;;;;;13.70;101556.00;;;;9981556;29;20201;-84
2022/05/10 00:18:35;;;;;;;14.60;8.30;;;;;13.60;101552.00;;;;9980234;29;20266;-83
2022/05/10 00:23:37;;;;;;;13.80;7.93;;;;;13.50;101530.00;;;;9996339;29;20295;-82
2022/05/10 00:28:39;;;;;;;12.37;7.60;;;;;13.50;101531.00;;;;9995767;29;20633;-82
2022/05/10 00:33:42;;;;;;;16.17;7.57;;;;;13.40;101525.00;;;;9968149;29;20634;-82
2022/05/10 00:38:44;;;;;;;12.53;8.63;;;;;13.40;101528.00;;;;9981934;29;20227;-82
2022/05/10 00:43:51;;;;;;;15.37;9.00;;;;;13.40;101524.00;;;;9994509;29;20210;-83
2022/05/10 00:49:15;;;;;;;14.27;9.67;;;;;13.40;101523.00;;;;9994617;29;20218;-83
2022/05/10 00:54:42;;;;;;;13.37;9.30;;;;;13.40;101511.00;;;;9965037;29;20217;-82
2022/05/10 01:00:03;;;;;;;14.47;8.93;;;;;13.40;101523.00;;;;9949008;29;20204;-79
2022/05/10 01:05:19;;;;;;;20.30;10.17;;;;;13.40;101513.00;;;;9996406;29;20316;-79
2022/05/10 01:10:31;;;;;;;11.43;8.27;;;;;13.30;101506.00;;;;10004582;29;20210;-79
2022/05/10 01:15:35;;;;;;;17.37;9.00;;;;;13.30;101498.00;;;;9956291;29;20207;-80
2022/05/10 01:20:43;;;;;;;16.63;10.23;;;;;13.20;101490.00;;;;9997223;29;20194;-80
2022/05/10 01:25:58;;;;;;;16.43;10.27;;;;;13.30;101481.00;;;;9965839;29;20618;-79
2022/05/10 01:31:12;;;;;;;14.90;8.87;;;;;13.40;101477.00;;;;9967946;29;20215;-80
2022/05/10 01:36:52;;;;;;;12.87;8.83;;;;;13.30;101478.00;;;;9992937;29;20193;-80
2022/05/10 01:42:11;;;;;;;14.80;9.97;;;;;13.20;101472.00;;;;9976738;29;20201;-81
2022/05/10 01:47:19;;;;;;;15.37;9.17;;;;;13.10;101466.00;;;;9995658;29;20720;-79
2022/05/10 01:52:49;;;;;;;16.93;10.43;;;;;13.00;101460.00;;;;9981121;29;20213;-79
2022/05/10 01:57:52;;;;;;;15.50;10.10;;;;;13.00;101452.00;;;;9980383;29;20198;-77
2022/05/10 02:03:00;;;;;;;23.07;10.83;;;;;13.00;101447.00;;;;9981123;29;20233;-77
2022/05/10 02:08:21;;;;;;;20.03;11.13;;;;;13.00;101443.00;;;;10009666;29;20255;-78
2022/05/10 02:13:29;;;;;;;18.93;11.20;;;;;13.10;101438.00;;;;9979514;29;20198;-76
2022/05/10 02:18:49;;;;;;;20.87;11.43;;;;;13.10;101432.00;;;;9980133;29;20265;-77
2022/05/10 02:24:18;;;;;;;15.70;9.73;;;;;13.20;101427.00;;;;9979408;29;20205;-78
2022/05/10 02:29:29;;;;;;;18.07;10.20;;;;;13.10;101418.00;;;;9979385;29;20225;-80
2022/05/10 02:34:34;;;;;;;17.43;10.67;;;;;13.10;101413.00;;;;9993556;29;20210;-77
2022/05/10 02:39:36;;;;;;;16.87;11.37;;;;;13.00;101404.00;;;;9993333;29;20200;-78
2022/05/10 02:44:38;;;;;;;23.87;12.30;;;;;12.90;101389.00;;;;9978698;29;20212;-77
2022/05/10 02:49:40;;;;;;;15.43;11.13;;;;;12.90;101383.00;;;;9994262;29;20222;-79
2022/05/10 02:54:42;;;;;;;17.40;11.00;;;;;13.00;101393.00;;;;9993222;29;20339;-79
2022/05/10 02:59:44;;;;;;;15.30;10.40;;;;;12.90;101392.00;;;;9977892;29;20264;-77
2022/05/10 03:04:52;;;;;;;15.00;10.10;;;;;12.90;101389.00;;;;9978336;29;20328;-77
2022/05/10 03:09:53;;;;;;;13.93;9.97;;;;;12.90;101377.00;;;;9959907;29;20249;-78
2022/05/10 03:14:55;;;;;;;14.23;10.67;;;;;12.80;101387.00;;;;9968969;29;20260;-77
2022/05/10 03:19:57;;;;;;;17.47;10.93;;;;;12.80;101379.00;;;;9992296;29;20198;-78
2022/05/10 03:24:59;;;;;;;15.60;10.47;;;;;13.00;101370.00;;;;9991319;29;20227;-78
2022/05/10 03:30:05;;;;;;;15.17;11.07;;;;;13.00;101370.00;;;;9995518;29;20229;-78
2022/05/10 03:35:07;;;;;;;18.83;11.37;;;;;13.00;101365.00;;;;9991844;29;20202;-77
2022/05/10 03:40:11;;;;;;;21.00;11.93;;;;;13.20;101359.00;;;;9992260;29;20200;-79
2022/05/10 03:45:14;;;;;;;24.17;12.10;;;;;13.60;101360.00;;;;9991723;29;20206;-79
2022/05/10 03:50:23;;;;;;;25.50;12.53;;;;;14.00;101349.00;;;;9962290;29;20225;-79
2022/05/10 03:55:28;;;;;;;23.33;11.77;;;;;14.30;101347.00;;;;9977755;29;20305;-79
2022/05/10 04:00:30;;;;;;;22.43;11.10;;;;;14.50;101346.00;;;;9992444;29;20209;-79
2022/05/10 04:05:32;;;;;;;20.63;10.93;;;;;14.70;101339.00;;;;10007743;29;20282;-78
2022/05/10 04:10:34;;;;;;;15.53;10.27;;;;;14.80;101337.00;;;;9992023;29;20217;-79
2022/05/10 04:15:36;;;;;;;19.67;12.00;;;;;14.90;101342.00;;;;9977494;29;20717;-78
2022/05/10 04:20:38;;;;;;;19.00;10.57;;;;;15.00;101328.00;;;;9991989;29;20194;-78
2022/05/10 04:25:40;;;;;;;14.30;9.87;;;;;15.00;101341.00;;;;9977582;29;20204;-79
2022/05/10 04:30:42;;;;;;;14.73;9.70;;;;;15.10;101333.00;;;;9962762;29;20217;-78
2022/05/10 04:35:44;;;;;;;12.27;9.70;;;;;15.20;101344.00;;;;9957436;29;20206;-78
2022/05/10 04:46:16;;;;;;;14.43;9.20;;;;;15.50;101339.00;;;;9951865;29;20207;-79
2022/05/10 04:51:19;;;;;;;17.93;9.97;;;;;15.60;101340.00;;;;9968752;29;20669;-79
2022/05/10 04:56:21;;;;;;;15.00;10.63;;;;;15.70;101341.00;;;;9983040;29;20657;-79
2022/05/10 05:01:28;;;;;;;14.10;9.50;;;;;16.00;101348.00;;;;9983287;29;20244;-79
2022/05/10 05:06:30;;;;;;;11.77;8.37;;;;;16.40;101335.00;;;;9997824;29;20311;-82
2022/05/10 05:11:33;;;;;;;14.63;9.60;;;;;16.80;101343.00;;;;10007885;29;20218;-79
2022/05/10 05:16:34;;;;;;;17.07;9.63;;;;;17.10;101333.00;;;;9944766;29;20251;-79
2022/05/10 05:21:36;;;;;;;13.87;8.77;;;;;17.50;101331.00;;;;9927572;29;20262;-79
2022/05/10 05:26:38;;;;;;;12.82;8.73;;;;;18.20;101334.00;;;;9943876;29;20205;-79
2022/05/10 05:31:40;;;;;;;12.02;8.43;;;;;18.60;101342.00;;;;9944947;29;20589;-80
2022/05/10 05:36:43;;;;;;;12.05;8.57;;;;;18.70;101334.00;;;;9967988;29;20227;-80
2022/05/10 05:41:44;;;;;;;10.38;7.25;;;;;18.80;101331.00;;;;9975100;29;20215;-78
2022/05/10 05:46:46;;;;;;;11.63;7.38;;;;;19.10;101331.00;;;;10000634;29;20213;-77
2022/05/10 05:51:48;;;;;;;12.32;7.10;;;;;19.60;101329.00;;;;9980907;29;20210;-78
2022/05/10 05:56:57;;;;;;;12.68;7.28;;;;;20.30;101320.00;;;;9981717;29;20210;-79
2022/05/10 06:01:59;;;;;;;13.70;7.60;;;;;20.60;101330.00;;;;9991912;29;20201;-78
2022/05/10 06:07:01;;;;;;;15.18;7.38;;;;;20.50;101329.00;;;;9967447;29;20320;-79
2022/05/10 06:12:05;;;;;;;12.50;7.85;;;;;20.30;101336.00;;;;9978625;29;20267;-77
2022/05/10 06:17:09;;;;;;;13.68;6.93;;;;;20.30;101335.00;;;;9969076;29;20208;-77
2022/05/10 06:22:12;;;;;;;14.88;7.00;;;;;20.50;101331.00;;;;9968939;29;20289;-80
2022/05/10 06:27:16;;;;;;;12.88;7.13;;;;;20.80;101324.00;;;;10004908;29;20213;-78
2022/05/10 06:32:23;;;;;;;12.70;6.97;;;;;21.20;101329.00;;;;9980584;29;20231;-78
2022/05/10 06:42:46;;;;;;;15.30;7.82;;;;;22.10;101323.00;;;;10003402;29;20205;-79
2022/05/10 06:47:49;;;;;;;11.45;7.68;;;;;22.60;101324.00;;;;9964435;29;20205;-79
2022/05/10 06:52:54;;;;;;;11.18;7.43;;;;;23.00;101314.00;;;;9988685;29;20577;-78
2022/05/10 06:57:56;;;;;;;15.40;7.15;;;;;23.60;101306.00;;;;9979139;29;20206;-79
2022/05/10 07:03:07;;;;;;;9.57;7.00;;;;;23.50;101312.00;;;;9968498;29;20264;-79
2022/05/10 07:08:12;;;;;;;9.07;5.57;;;;;23.40;101308.00;;;;9984388;29;20219;-78
2022/05/10 07:13:19;;;;;;;8.43;5.30;;;;;23.50;101304.00;;;;9991750;29;20217;-79
2022/05/10 07:18:22;;;;;;;5.15;4.60;;;;;23.60;101299.00;;;;9962465;29;20850;-78
2022/05/10 07:23:28;;;;;;;6.65;4.55;;;;;23.70;101294.00;;;;9976076;29;20871;-78
2022/05/10 07:28:36;;;;;;;14.82;5.05;;;;;24.00;101306.00;;;;9958246;29;20197;-79
2022/05/10 07:33:38;;;;;;;5.43;4.35;;;;;24.10;101293.00;;;;9981084;29;20244;-79
2022/05/10 07:38:48;;;;;;;9.77;4.63;;;;;24.00;101304.00;;;;9974439;29;20250;-80
2022/05/10 07:43:51;;;;;;;5.28;4.13;;;;;23.80;101301.00;;;;9982836;29;20200;-79
2022/05/10 07:48:53;;;;;;;10.80;4.63;;;;;23.80;101288.00;;;;9996924;29;20213;-78
2022/05/10 07:53:55;;;;;;;9.55;4.80;;;;;24.00;101290.00;;;;9990002;29;20305;-79
2022/05/10 07:58:57;;;;;;;6.95;4.35;;;;;24.40;101293.00;;;;9985515;29;20212;-78
2022/05/10 08:03:59;;;;;;;5.80;4.15;;;;;24.90;101286.00;;;;9991145;29;20222;-78
2022/05/10 08:09:02;;;;;;;6.68;3.63;;;;;25.30;101286.00;;;;9989957;29;20209;-79
2022/05/10 08:14:05;;;;;;;5.65;3.70;;;;;26.00;101291.00;;;;9980804;29;20205;-78
2022/05/10 08:19:08;;;;;;;6.93;3.80;;;;;26.10;101281.00;;;;9984959;29;20189;-79
2022/05/10 08:24:10;;;;;;;9.27;3.80;;;;;26.00;101274.00;;;;9981915;29;20280;-79
2022/05/10 08:29:12;;;;;;;6.88;3.70;;;;;25.80;101281.00;;;;9983381;29;20627;-78
2022/05/10 08:34:15;;;;;;;14.57;4.10;;;;;26.00;101272.00;;;;9997480;29;20585;-80
2022/05/10 08:39:17;;;;;;;5.78;3.55;;;;;26.60;101274.00;;;;9997542;29;20206;-79
2022/05/10 08:44:23;;;;;;;8.90;3.72;;;;;27.00;101270.00;;;;10006034;29;20241;-79
2022/05/10 08:49:51;;;;;;;5.65;3.08;;;;;27.30;101277.00;;;;10011229;29;20206;-79
2022/05/10 08:54:53;;;;;;;3.67;3.38;;;;;27.80;101259.00;;;;9981751;29;20238;-79
2022/05/10 08:59:57;;;;;;;5.00;3.58;;;;;28.40;101258.00;;;;9977557;29;20202;-80
2022/05/10 09:05:03;;;;;;;7.10;3.85;;;;;28.70;101262.00;;;;9997643;29;20221;-79
2022/05/10 09:10:17;;;;;;;4.65;3.20;;;;;28.90;101261.00;;;;9995994;29;20705;-79
2022/05/10 09:15:20;;;;;;;9.50;3.63;;;;;29.30;101242.00;;;;9996869;29;20231;-79
2022/05/10 09:20:22;;;;;;;9.77;3.53;;;;;30.60;101241.00;;;;9988697;29;20677;-80
2022/05/10 09:25:37;;;;;;;5.75;3.45;;;;;31.30;101250.00;;;;9995945;29;20251;-80
2022/05/10 09:30:39;;;;;;;5.68;3.60;;;;;30.30;101241.00;;;;9984308;29;20293;-79
2022/05/10 09:35:51;;;;;;;7.32;3.95;;;;;29.00;101240.00;;;;9960636;29;20258;-80
2022/05/10 09:40:54;;;;;;;7.70;3.50;;;;;29.20;101240.00;;;;9985090;29;20285;-79
2022/05/10 09:46:17;;;;;;;8.32;3.90;;;;;30.10;101235.00;;;;10005341;29;20214;-80
2022/05/10 09:51:19;;;;;;;7.07;3.55;;;;;31.20;101234.00;;;;9992662;29;20214;-78
2022/05/10 09:56:24;;;;;;;4.82;3.47;;;;;32.00;101245.00;;;;9984792;29;20210;-80
2022/05/10 10:01:43;;;;;;;9.55;3.78;;;;;31.80;101226.00;;;;10010223;29;20279;-79
2022/05/10 10:07:02;;;;;;;8.75;4.05;;;;;31.60;101235.00;;;;9965907;29;20260;-79
2022/05/10 10:12:11;;;;;;;11.80;4.10;;;;;31.30;101218.00;;;;9979896;29;20229;-78
2022/05/10 10:17:28;;;;;;;4.22;3.50;;;;;32.20;101223.00;;;;9970502;29;20233;-79
2022/05/10 10:22:37;;;;;;;7.72;3.30;;;;;33.30;101212.00;;;;9983942;29;20202;-78
2022/05/10 10:27:48;;;;;;;6.28;3.67;;;;;33.10;101216.00;;;;9994094;29;20198;-78
2022/05/10 10:32:56;;;;;;;5.97;3.25;;;;;33.60;101214.00;;;;9980229;29;20626;-79
2022/05/10 10:38:24;;;;;;;8.05;3.65;;;;;33.60;101204.00;;;;9990679;29;20202;-78
2022/05/10 10:43:50;;;;;;;6.90;3.85;;;;;32.50;101200.00;;;;9969339;29;20204;-79
2022/05/10 10:48:56;;;;;;;5.57;3.72;;;;;32.00;101192.00;;;;9961567;29;20577;-79
2022/05/10 10:54:00;;;;;;;6.82;3.70;;;;;32.20;101193.00;;;;9967665;29;20209;-77
2022/05/10 10:59:27;;;;;;;5.00;3.13;;;;;32.40;101188.00;;;;9973600;29;20198;-78
2022/05/10 11:04:29;;;;;;;5.57;3.63;;;;;31.90;101195.00;;;;9989930;29;20229;-79
2022/05/10 11:09:50;;;;;;;11.68;3.72;;;;;32.00;101188.00;;;;9976527;29;20699;-79
2022/05/10 11:15:07;;;;;;;9.45;3.30;;;;;31.80;101173.00;;;;9966823;29;20224;-79
2022/05/10 11:20:37;;;;;;;6.75;3.60;;;;;32.40;101167.00;;;;9987257;29;20186;-78
2022/05/10 11:26:00;;;;;;;7.47;3.53;;;;;32.10;101164.00;;;;9968716;29;20217;-79
2022/05/10 11:31:11;;;;;;;7.93;3.35;;;;;31.20;101177.00;;;;9975760;29;20692;-79
2022/05/10 11:36:23;;;;;;;7.22;3.78;;;;;31.30;101169.00;;;;9983256;29;20706;-78
2022/05/10 11:41:40;;;;;;;7.50;3.53;;;;;31.40;101170.00;;;;9978725;29;20190;-79
2022/05/10 11:47:00;;;;;;;7.57;3.78;;;;;31.60;101159.00;;;;9976026;29;20262;-81
2022/05/10 11:52:11;;;;;;;7.25;3.15;;;;;31.30;101149.00;;;;9954778;29;20210;-81
2022/05/10 11:57:17;;;;;;;6.78;6.18;;;;;30.90;101163.00;;;;9974741;29;20673;-80
2022/05/10 12:02:28;;;;;;;7.72;3.47;;;;;30.70;101149.00;;;;9965956;29;20261;-81
2022/05/10 12:07:34;;;;;;;3.85;3.15;;;;;30.70;101145.00;;;;9973097;29;20205;-80
2022/05/10 12:12:42;;;;;;;6.80;3.72;;;;;31.00;101140.00;;;;9954249;29;20240;-80
2022/05/10 12:24:11;;;;;;;6.95;3.33;;;;;30.50;101133.00;;;;9974780;29;20737;-80
2022/05/10 12:29:34;;;;;;;8.68;3.90;;;;;30.60;101129.00;;;;9954903;29;20610;-81
2022/05/10 12:34:52;;;;;;;5.70;3.75;;;;;31.30;101126.00;;;;9974977;29;20205;-79
2022/05/10 12:40:31;;;;;;;5.32;3.65;;;;;31.90;101132.00;;;;9982752;29;20321;-80
2022/05/10 12:46:01;;;;;;;6.85;3.53;;;;;31.80;101124.00;;;;9934705;29;20194;-80
2022/05/10 12:51:22;;;;;;;4.80;3.65;;;;;31.20;101113.00;;;;9989665;29;20222;-81
2022/05/10 12:56:27;;;;;;;8.25;3.75;;;;;31.50;101095.00;;;;9966295;29;20313;-79
2022/05/10 13:01:34;;;;;;;6.72;4.53;;;;;32.60;101105.00;;;;9983420;29;20206;-81
2022/05/10 13:06:58;;;;;;;6.30;3.78;;;;;32.50;101106.00;;;;9983725;29;20312;-81
2022/05/10 13:12:19;;;;;;;5.72;4.13;;;;;32.20;101109.00;;;;9978201;29;20244;-79
2022/05/10 13:17:28;;;;;;;6.03;4.75;;;;;31.60;101084.00;;;;9993504;29;20688;-79
2022/05/10 13:22:31;;;;;;;6.00;3.97;;;;;32.60;101086.00;;;;10013826;29;20218;-79
2022/05/10 13:27:35;;;;;;;7.28;4.43;;;;;30.80;101075.00;;;;10010607;29;20205;-79
2022/05/10 13:32:42;;;;;;;9.88;4.50;;;;;30.70;101071.00;;;;9982452;29;20214;-79
2022/05/10 13:37:53;;;;;;;5.00;4.45;;;;;30.50;101064.00;;;;9997288;29;20689;-78
2022/05/10 13:43:05;;;;;;;12.25;4.30;;;;;30.00;101066.00;;;;10007385;29;20556;-79
2022/05/10 13:48:14;;;;;;;9.40;4.63;;;;;31.10;101064.00;;;;9972720;29;20658;-79
2022/05/10 13:53:27;;;;;;;6.60;4.32;;;;;30.50;101055.00;;;;10003393;29;20209;-79
2022/05/10 13:58:32;;;;;;;9.52;4.00;;;;;30.30;101032.00;;;;10006381;29;20198;-80
2022/05/10 14:03:37;;;;;;;7.03;4.55;;;;;32.60;101039.00;;;;9980934;29;20278;-80
2022/05/10 14:08:43;;;;;;;5.90;3.53;;;;;33.40;101028.00;;;;9992818;29;20224;-78
2022/05/10 14:13:52;;;;;;;3.80;3.50;;;;;32.20;101034.00;;;;9989372;29;20214;-80
2022/05/10 14:18:56;;;;;;;7.65;3.97;;;;;31.60;101031.00;;;;9988733;29;20194;-80
2022/05/10 14:24:04;;;;;;;5.85;3.22;;;;;30.70;101021.00;;;;9978647;29;20197;-80
2022/05/10 14:29:13;;;;;;;7.47;3.97;;;;;30.10;101021.00;;;;9974883;29;20546;-79
2022/05/10 14:34:55;;;;;;;4.75;3.35;;;;;30.50;101007.00;;;;9962824;29;20202;-80
2022/05/10 14:40:00;;;;;;;3.95;3.28;;;;;31.20;101009.00;;;;9980820;29;20208;-80
2022/05/10 14:45:43;;;;;;;4.22;3.00;;;;;31.70;100997.00;;;;9988779;29;20205;-80
2022/05/10 14:50:55;;;;;;;5.88;2.55;;;;;30.70;100993.00;;;;9920996;29;20201;-79
2022/05/10 14:56:03;;;;;;;5.47;2.70;;;;;30.00;100993.00;;;;9985185;29;20209;-80
2022/05/10 15:01:19;;;;;;;4.00;2.45;;;;;29.70;100997.00;;;;9975686;29;20193;-80
2022/05/10 15:06:21;;;;;;;5.38;2.05;;;;;29.50;100990.00;;;;9974088;29;20224;-78
2022/05/10 15:11:24;;;;;;;3.22;2.50;;;;;28.90;100979.00;;;;9984708;29;20707;-80
2022/05/10 15:16:26;;;;;;;10.30;2.22;;;;;28.80;100973.00;;;;9964433;29;20565;-79
2022/05/10 15:21:36;;;;;;;4.75;2.03;;;;;28.60;100967.00;;;;9965762;29;20198;-79
2022/05/10 15:26:54;;;;;;;3.70;2.40;;;;;28.10;100968.00;;;;9992136;29;20206;-80
2022/05/10 15:31:57;;;;;;;5.80;2.20;;;;;27.70;100968.00;;;;9975344;29;20202;-79
2022/05/10 15:36:59;;;;;;;6.47;2.00;;;;;27.60;100970.00;;;;9987400;29;20206;-80
2022/05/10 15:42:02;;;;;;;3.38;1.88;;;;;27.50;100967.00;;;;9989527;29;20205;-79
2022/05/10 15:47:05;;;;;;;7.25;1.98;;;;;27.30;100973.00;;;;9974895;29;20292;-79
2022/05/10 15:52:07;;;;;;;5.93;2.33;;;;;26.80;100973.00;;;;9991870;29;20252;-80
2022/05/10 15:57:09;;;;;;;5.70;2.60;;;;;26.20;100985.00;;;;10007584;29;20217;-79
2022/05/10 16:02:12;;;;;;;6.07;2.70;;;;;25.90;100985.00;;;;10008042;29;20198;-79
2022/05/10 16:07:16;;;;;;;5.57;2.25;;;;;25.70;100985.00;;;;9977758;29;20272;-79
2022/05/10 16:12:18;;;;;;;5.95;2.03;;;;;25.50;100986.00;;;;9977889;29;20225;-79
2022/05/10 16:17:20;;;;;;;3.97;2.15;;;;;25.20;100980.00;;;;9992747;29;20213;-79
2022/05/10 16:22:39;;;;;;;7.70;2.33;;;;;24.90;100976.00;;;;9963014;29;20258;-79
2022/05/10 16:33:05;;;;;;;5.75;2.25;;;;;24.60;100965.00;;;;10007667;29;20237;-80
2022/05/10 16:38:09;;;;;;;4.32;2.25;;;;;24.50;100961.00;;;;9997017;29;20204;-80
2022/05/10 16:43:18;;;;;;;6.43;2.50;;;;;24.20;100963.00;;;;9985513;29;20198;-80
2022/05/10 16:48:22;;;;;;;6.25;2.72;;;;;24.00;100951.00;;;;10000922;29;20296;-79
2022/05/10 16:53:24;;;;;;;6.68;3.00;;;;;23.90;100957.00;;;;9983785;29;20237;-79
2022/05/10 16:58:26;;;;;;;8.07;2.72;;;;;23.70;100953.00;;;;9997678;29;20205;-79
2022/05/10 17:03:29;;;;;;;11.70;3.05;;;;;23.60;100957.00;;;;10001575;29;20229;-80
2022/05/10 17:08:31;;;;;;;5.35;2.95;;;;;23.60;100962.00;;;;9975970;29;20631;-80
2022/05/10 17:13:35;;;;;;;6.57;2.80;;;;;23.50;100963.00;;;;10015341;29;20289;-81
2022/05/10 17:18:38;;;;;;;6.22;2.72;;;;;23.40;100960.00;;;;9975517;29;20217;-81
2022/05/10 17:23:41;;;;;;;6.40;2.80;;;;;23.40;100971.00;;;;9981342;29;20194;-81
2022/05/10 17:33:45;;;;;;;4.50;2.47;;;;;23.10;100969.00;;;;9985527;29;20592;-81
2022/05/10 17:38:47;;;;;;;8.45;2.90;;;;;22.90;100975.00;;;;10017250;29;20652;-80
2022/05/10 17:43:50;;;;;;;6.03;2.30;;;;;22.70;100969.00;;;;10004296;29;20194;-81
2022/05/10 17:48:52;;;;;;;5.03;2.05;;;;;22.50;100975.00;;;;9988036;29;20273;-80
2022/05/10 17:53:56;;;;;;;5.38;1.70;;;;;22.10;100978.00;;;;9965187;29;20278;-80
2022/05/10 17:58:58;;;;;;;2.30;1.58;;;;;21.90;100983.00;;;;9982943;29;20198;-80
2022/05/10 18:04:00;;;;;;;7.35;1.60;;;;;21.70;100984.00;;;;10015577;29;20349;-81
2022/05/10 18:09:03;;;;;;;5.93;1.60;;;;;21.70;100975.00;;;;10001396;29;20204;-79
2022/05/10 18:14:05;;;;;;;4.40;1.50;;;;;21.50;100995.00;;;;10001705;29;20238;-80
2022/05/10 18:19:07;;;;;;;4.95;1.48;;;;;21.30;100998.00;;;;10009532;29;20226;-80
2022/05/10 18:24:09;;;;;;;8.63;1.58;;;;;21.20;101003.00;;;;9956959;29;20198;-79
2022/05/10 18:29:11;;;;;;;5.20;1.25;;;;;21.00;101000.00;;;;9998462;29;20233;-80
2022/05/10 18:34:13;;;;;;;6.18;1.40;;;;;20.90;101006.00;;;;9975701;29;20217;-81
2022/05/10 18:39:16;;;;;;;4.47;1.13;;;;;20.70;101008.00;;;;9989471;29;20210;-80
2022/05/10 18:44:18;;;;;;;2.25;1.23;;;;;20.60;101013.00;;;;9977564;29;20197;-80
2022/05/10 18:49:20;;;;;;;2.35;1.10;;;;;20.50;101013.00;;;;9999267;29;20546;-79
2022/05/10 18:54:23;;;;;;;4.82;2.35;;;;;20.40;101010.00;;;;9998569;29;20697;-80
2022/05/10 18:59:25;;;;;;;2.33;1.20;;;;;20.30;101007.00;;;;9993004;29;20604;-80
2022/05/10 19:04:27;;;;;;;5.53;1.25;;;;;20.20;101007.00;;;;10002898;29;20266;-79
2022/05/10 19:09:30;;;;;;;3.67;1.35;;;;;20.00;101008.00;;;;9997865;29;20206;-80
2022/05/10 19:14:32;;;;;;;3.10;1.38;;;;;19.90;101012.00;;;;10003492;29;20222;-80
2022/05/10 19:19:34;;;;;;;3.95;1.52;;;;;19.80;101008.00;;;;10003941;29;20689;-80
2022/05/10 19:24:37;;;;;;;3.28;1.33;;;;;19.70;101011.00;;;;9990011;29;20190;-81
2022/05/10 19:29:39;;;;;;;3.00;1.30;;;;;19.60;101012.00;;;;9977608;29;20297;-80
2022/05/10 19:34:41;;;;;;;2.90;1.27;;;;;19.40;101004.00;;;;9998907;29;20292;-80
2022/05/10 19:39:44;;;;;;;6.78;1.50;;;;;19.30;101008.00;;;;10004113;29;20673;-80
2022/05/10 19:44:50;;;;;;;3.38;1.40;;;;;19.20;101022.00;;;;9978234;29;20209;-80
2022/05/10 19:49:52;;;;;;;6.88;1.60;;;;;19.10;101011.00;;;;10008472;29;20193;-80
2022/05/10 19:54:54;;;;;;;7.25;1.85;;;;;19.10;101025.00;;;;9985069;29;20217;-81
2022/05/10 19:59:56;;;;;;;4.78;1.30;;;;;19.00;101031.00;;;;9994572;29;20206;-80
2022/05/10 20:10:20;;;;;;;2.92;1.30;;;;;18.90;101020.00;;;;9992843;29;20225;-81
2022/05/10 20:15:36;;;;;;;7.85;1.55;;;;;18.80;101014.00;;;;9994980;29;20217;-81
2022/05/10 20:20:42;;;;;;;3.45;1.27;;;;;18.70;101013.00;;;;9995029;29;20201;-80
2022/05/10 20:25:44;;;;;;;3.90;1.63;;;;;18.70;101020.00;;;;10008715;29;20206;-81
2022/05/10 20:30:47;;;;;;;4.35;1.42;;;;;18.70;101016.00;;;;9999594;29;20213;-80
2022/05/10 20:35:49;;;;;;;3.80;1.55;;;;;18.60;101007.00;;;;9983383;29;20214;-80
2022/05/10 20:40:51;;;;;;;3.78;1.42;;;;;18.60;101014.00;;;;9970160;29;20199;-80
2022/05/10 20:45:53;;;;;;;6.72;1.77;;;;;18.60;101004.00;;;;9979906;29;20205;-80
2022/05/10 20:50:56;;;;;;;6.70;1.60;;;;;18.60;101009.00;;;;10005144;29;20217;-80
2022/05/10 20:55:58;;;;;;;5.97;2.25;;;;;18.50;101010.00;;;;9996238;29;20245;-80
2022/05/10 21:01:01;;;;;;;2.53;1.58;;;;;18.50;101010.00;;;;10011236;29;20194;-80
2022/05/10 21:06:04;;;;;;;3.83;1.48;;;;;18.50;101011.00;;;;10025857;29;20221;-81
2022/05/10 21:11:09;;;;;;;1.90;1.75;;;;;18.50;101002.00;;;;9988128;29;20202;-81
2022/05/10 21:16:11;;;;;;;5.78;1.90;;;;;18.50;100989.00;;;;9995481;29;20210;-80
2022/05/10 21:21:32;;;;;;;1.98;1.50;;;;;18.40;100993.00;;;;10004324;29;20209;-81
2022/05/10 21:27:08;;;;;;;4.28;1.50;;;;;18.40;100992.00;;;;10012619;29;20293;-81
2022/05/10 21:32:10;;;;;;;3.58;1.63;;;;;18.30;100987.00;;;;9991693;29;20823;-80
2022/05/10 21:37:12;;;;;;;2.75;1.50;;;;;18.30;100982.00;;;;10006283;29;20201;-81
2022/05/10 21:42:14;;;;;;;5.78;1.70;;;;;18.20;100985.00;;;;10023322;29;20206;-81
2022/05/10 21:47:15;;;;;;;4.85;1.73;;;;;18.20;100985.00;;;;10003427;29;20581;-81
2022/05/10 21:52:17;;;;;;;3.45;1.70;;;;;18.20;100988.00;;;;10002230;29;20227;-81
2022/05/10 21:57:19;;;;;;;3.15;1.30;;;;;18.20;100991.00;;;;9984307;29;20201;-81
2022/05/10 22:02:22;;;;;;;3.90;1.75;;;;;18.20;100986.00;;;;10017831;29;20206;-81
2022/05/10 22:07:25;;;;;;;3.92;2.05;;;;;18.10;100981.00;;;;10004781;29;20237;-80
2022/05/10 22:12:27;;;;;;;3.90;1.42;;;;;18.10;100972.00;;;;9977862;29;20586;-81
2022/05/10 22:17:29;;;;;;;3.15;1.38;;;;;18.10;100979.00;;;;9982902;29;20622;-81
2022/05/10 22:22:31;;;;;;;1.33;1.10;;;;;18.10;100974.00;;;;10003634;29;20202;-81
2022/05/10 22:27:34;;;;;;;1.75;1.30;;;;;18.00;100973.00;;;;9987891;29;20206;-80
2022/05/10 22:32:37;;;;;;;2.85;1.40;;;;;18.00;100977.00;;;;9977704;29;20277;-81
2022/05/10 22:37:40;;;;;;;4.18;1.50;;;;;18.00;100972.00;;;;10000542;29;20225;-81
2022/05/10 22:42:42;;;;;;;6.97;1.30;;;;;18.00;100961.00;;;;9985422;29;20646;-81
2022/05/10 22:47:44;;;;;;;2.95;1.33;;;;;18.00;100960.00;;;;10001442;29;20205;-81
2022/05/10 22:52:46;;;;;;;3.97;1.45;;;;;18.00;100955.00;;;;10001288;29;20218;-81
2022/05/10 22:57:49;;;;;;;3.55;1.60;;;;;18.00;100940.00;;;;9986253;29;20670;-81
2022/05/10 23:02:51;;;;;;;1.90;1.27;;;;;17.90;100939.00;;;;9984482;29;20249;-80
2022/05/10 23:07:55;;;;;;;1.70;1.33;;;;;17.80;100945.00;;;;10001532;29;20201;-80
2022/05/10 23:12:57;;;;;;;3.90;1.23;;;;;17.80;100929.00;;;;9970110;29;20210;-81
2022/05/10 23:17:59;;;;;;;2.55;1.25;;;;;17.80;100931.00;;;;9998835;29;20197;-79
2022/05/10 23:23:01;;;;;;;3.25;1.20;;;;;17.80;100919.00;;;;9983626;29;20269;-80
2022/05/10 23:28:11;;;;;;;1.20;1.03;;;;;17.80;100919.00;;;;9982279;29;20205;-81
2022/05/10 23:33:13;;;;;;;2.63;1.40;;;;;17.80;100918.00;;;;9987822;29;20241;-80
2022/05/10 23:38:15;;;;;;;3.17;1.20;;;;;17.80;100916.00;;;;9982217;29;20193;-81
2022/05/10 23:48:38;;;;;;;2.03;1.38;;;;;17.80;100892.00;;;;9980995;29;20235;-80
2022/05/10 23:53:40;;;;;;;2.15;1.55;;;;;17.70;100900.00;;;;9966333;29;20225;-81
2022/05/10 23:58:42;;;;;;;5.95;2.05;;;;;17.70;100899.00;;;;9963758;29;20208;-81
